createdAt,value
2023-05-22T00:01:46.745Z,9.77
2023-05-22T00:04:13.641Z,9.88
2023-05-22T00:06:43.814Z,9.52
2023-05-22T00:09:11.071Z,9.68
2023-05-22T00:11:39.345Z,9.70
2023-05-22T00:14:06.354Z,9.35
2023-05-22T00:16:33.092Z,9.48
2023-05-22T00:19:01.053Z,10.38
2023-05-22T00:21:27.872Z,10.10
2023-05-22T00:23:54.614Z,10.30
2023-05-22T00:26:23.395Z,9.73
2023-05-22T00:28:50.185Z,9.98
2023-05-22T00:31:16.993Z,10.23
2023-05-22T00:33:43.776Z,9.48
2023-05-22T00:36:10.774Z,9.20
2023-05-22T00:38:38.109Z,9.02
2023-05-22T00:41:06.719Z,9.07
2023-05-22T00:43:34.325Z,9.02
2023-05-22T00:46:01.050Z,9.18
2023-05-22T00:48:28.203Z,9.93
2023-05-22T00:50:57.129Z,9.65
2023-05-22T00:53:25.803Z,9.48
2023-05-22T00:55:54.579Z,8.95
2023-05-22T00:58:21.828Z,9.10
2023-05-22T01:00:48.812Z,9.23
2023-05-22T01:03:16.344Z,9.68
2023-05-22T01:05:43.477Z,9.88
2023-05-22T01:08:10.342Z,10.95
2023-05-22T01:10:39.064Z,9.73
2023-05-22T01:13:43.335Z,10.52
2023-05-22T01:16:18.870Z,10.23
2023-05-22T01:19:25.953Z,10.48
2023-05-22T01:22:14.316Z,10.23
2023-05-22T01:24:59.468Z,10.23
2023-05-22T01:28:03.854Z,10.68
2023-05-22T01:31:04.499Z,10.70
2023-05-22T01:33:38.715Z,10.20
2023-05-22T01:36:09.027Z,10.02
2023-05-22T01:38:36.260Z,9.23
2023-05-22T01:41:03.335Z,9.93
2023-05-22T01:43:30.550Z,10.48
2023-05-22T01:45:57.358Z,10.73
2023-05-22T01:48:24.208Z,10.10
2023-05-22T01:50:53.291Z,9.68
2023-05-22T01:53:37.855Z,9.48
2023-05-22T01:56:11.408Z,10.15
2023-05-22T01:58:52.421Z,9.90
2023-05-22T02:01:21.030Z,10.00
2023-05-22T02:03:51.778Z,10.50
2023-05-22T02:06:20.072Z,10.82
2023-05-22T02:08:47.370Z,9.70
2023-05-22T02:11:16.628Z,10.98
2023-05-22T02:13:43.495Z,11.18
2023-05-22T02:16:12.356Z,11.35
2023-05-22T02:18:41.749Z,10.23
2023-05-22T02:21:08.708Z,11.43
2023-05-22T02:23:35.792Z,11.35
2023-05-22T02:26:02.555Z,11.57
2023-05-22T02:28:29.294Z,11.43
2023-05-22T02:30:56.213Z,10.30
2023-05-22T02:33:23.030Z,10.50
2023-05-22T02:35:49.790Z,11.35
2023-05-22T02:38:16.525Z,10.60
2023-05-22T02:40:43.179Z,10.63
2023-05-22T02:43:09.945Z,11.05
2023-05-22T02:45:36.650Z,10.55
2023-05-22T02:48:03.801Z,11.18
2023-05-22T02:50:30.684Z,11.48
2023-05-22T02:52:57.402Z,12.10
2023-05-22T02:55:24.147Z,11.23
2023-05-22T02:57:50.899Z,12.27
2023-05-22T03:00:18.201Z,10.88
2023-05-22T03:02:44.976Z,11.55
2023-05-22T03:05:11.762Z,11.70
2023-05-22T03:07:38.498Z,12.35
2023-05-22T03:10:05.663Z,11.77
2023-05-22T03:12:32.515Z,12.02
2023-05-22T03:14:59.239Z,11.68
2023-05-22T03:17:26.026Z,13.05
2023-05-22T03:19:52.769Z,11.30
2023-05-22T03:22:19.583Z,12.48
2023-05-22T03:24:46.265Z,11.98
2023-05-22T03:27:15.986Z,11.57
2023-05-22T03:29:42.724Z,12.45
2023-05-22T03:32:09.426Z,12.52
2023-05-22T03:34:36.287Z,12.30
2023-05-22T03:37:03.174Z,12.93
2023-05-22T03:39:29.842Z,11.90
2023-05-22T03:41:56.565Z,10.82
2023-05-22T03:44:23.259Z,12.18
2023-05-22T03:46:49.937Z,12.38
2023-05-22T03:49:16.769Z,11.32
2023-05-22T03:51:43.469Z,10.95
2023-05-22T03:54:10.173Z,10.82
2023-05-22T03:56:37.248Z,11.82
2023-05-22T03:59:04.035Z,11.40
2023-05-22T04:01:30.954Z,11.10
2023-05-22T04:03:57.610Z,11.23
2023-05-22T04:06:25.695Z,11.48
2023-05-22T04:08:52.512Z,11.02
2023-05-22T04:11:20.905Z,10.07
2023-05-22T04:13:49.853Z,10.93
2023-05-22T04:16:17.566Z,11.23
2023-05-22T04:18:44.732Z,10.70
2023-05-22T04:21:12.692Z,10.90
2023-05-22T04:23:39.454Z,11.02
2023-05-22T04:26:08.689Z,11.68
2023-05-22T04:28:35.488Z,11.50
2023-05-22T04:31:02.439Z,10.88
2023-05-22T04:33:30.235Z,10.73
2023-05-22T04:35:56.974Z,11.00
2023-05-22T04:38:26.191Z,10.18
2023-05-22T04:40:52.929Z,8.90
2023-05-22T04:43:19.767Z,9.35
2023-05-22T04:45:46.497Z,8.43
2023-05-22T04:48:13.730Z,9.27
2023-05-22T04:50:40.716Z,8.82
2023-05-22T04:53:07.774Z,9.57
2023-05-22T04:55:34.532Z,9.68
2023-05-22T04:58:01.521Z,9.52
2023-05-22T05:00:28.925Z,9.57
2023-05-22T05:02:57.505Z,9.13
2023-05-22T05:05:24.593Z,9.15
2023-05-22T05:07:51.833Z,9.73
2023-05-22T05:10:18.944Z,8.80
2023-05-22T05:12:45.761Z,9.32
2023-05-22T05:15:12.871Z,8.68
2023-05-22T05:17:39.668Z,9.00
2023-05-22T05:20:07.659Z,9.20
2023-05-22T05:22:34.833Z,9.55
2023-05-22T05:25:01.904Z,8.68
2023-05-22T05:27:28.643Z,7.97
2023-05-22T05:29:55.339Z,8.23
2023-05-22T05:32:22.256Z,8.80
2023-05-22T05:34:49.205Z,10.15
2023-05-22T05:37:16.229Z,9.30
2023-05-22T05:39:43.289Z,9.20
2023-05-22T05:42:10.275Z,8.38
2023-05-22T05:44:37.120Z,8.38
2023-05-22T05:47:04.037Z,8.00
2023-05-22T05:49:30.903Z,8.40
2023-05-22T05:51:57.656Z,8.15
2023-05-22T05:54:26.407Z,7.95
2023-05-22T05:56:53.369Z,7.85
2023-05-22T05:59:20.488Z,8.38
2023-05-22T06:01:48.554Z,8.40
2023-05-22T06:04:15.293Z,7.78
2023-05-22T06:06:42.477Z,8.88
2023-05-22T06:09:10.189Z,7.00
2023-05-22T06:11:37.451Z,7.90
2023-05-22T06:14:07.007Z,8.15
2023-05-22T06:16:33.892Z,7.80
2023-05-22T06:19:01.189Z,7.05
2023-05-22T06:21:27.998Z,8.05
2023-05-22T06:23:54.730Z,9.00
2023-05-22T06:26:22.291Z,8.63
2023-05-22T06:28:49.110Z,8.27
2023-05-22T06:31:15.849Z,7.82
2023-05-22T06:33:43.300Z,8.52
2023-05-22T06:36:11.476Z,8.13
2023-05-22T06:38:39.269Z,8.40
2023-05-22T06:41:06.347Z,8.07
2023-05-22T06:43:33.284Z,8.10
2023-05-22T06:46:00.226Z,7.78
2023-05-22T06:48:27.003Z,8.07
2023-05-22T06:50:53.735Z,7.63
2023-05-22T06:53:20.479Z,7.57
2023-05-22T06:55:47.398Z,8.20
2023-05-22T06:58:14.246Z,8.07
2023-05-22T07:00:41.116Z,8.43
2023-05-22T07:03:08.106Z,8.07
2023-05-22T07:05:35.050Z,7.78
2023-05-22T07:08:01.855Z,8.65
2023-05-22T07:10:28.704Z,7.45
2023-05-22T07:12:55.614Z,8.00
2023-05-22T07:15:22.514Z,8.02
2023-05-22T07:17:49.614Z,8.25
2023-05-22T07:20:16.789Z,8.73
2023-05-22T07:22:43.523Z,7.78
2023-05-22T07:25:10.323Z,8.15
2023-05-22T07:27:37.062Z,8.00
2023-05-22T07:30:04.466Z,8.13
2023-05-22T07:32:31.259Z,8.00
2023-05-22T07:34:57.995Z,7.15
2023-05-22T07:37:24.905Z,8.27
2023-05-22T07:39:51.636Z,7.70
2023-05-22T07:42:18.482Z,7.82
2023-05-22T07:44:45.245Z,7.50
2023-05-22T07:47:12.057Z,8.32
2023-05-22T07:49:38.767Z,7.57
2023-05-22T07:52:05.907Z,7.63
2023-05-22T07:54:32.628Z,7.43
2023-05-22T07:57:03.226Z,7.85
2023-05-22T07:59:30.179Z,8.20
2023-05-22T08:01:58.381Z,7.78
2023-05-22T08:04:26.080Z,7.78
2023-05-22T08:06:53.290Z,8.27
2023-05-22T08:09:21.424Z,12.40
2023-05-22T08:11:48.228Z,8.75
2023-05-22T08:14:15.004Z,7.93
2023-05-22T08:16:41.705Z,8.82
2023-05-22T08:19:09.007Z,7.70
2023-05-22T08:21:36.006Z,8.10
2023-05-22T08:24:02.849Z,8.02
2023-05-22T08:26:31.386Z,7.57
2023-05-22T08:28:58.872Z,8.55
2023-05-22T08:31:25.662Z,8.10
2023-05-22T08:33:52.403Z,8.27
2023-05-22T08:36:19.184Z,8.43
2023-05-22T08:38:45.879Z,8.50
2023-05-22T08:41:13.375Z,8.45
2023-05-22T08:43:41.649Z,8.05
2023-05-22T08:46:09.687Z,8.55
2023-05-22T08:48:38.104Z,7.80
2023-05-22T08:51:06.235Z,7.88
2023-05-22T08:53:37.081Z,7.95
2023-05-22T08:56:06.753Z,7.82
2023-05-22T08:58:37.934Z,7.50
2023-05-22T09:01:06.001Z,7.72
2023-05-22T09:03:32.942Z,8.18
2023-05-22T09:06:00.525Z,7.80
2023-05-22T09:08:28.646Z,8.20
2023-05-22T09:10:56.235Z,8.10
2023-05-22T09:13:28.370Z,8.02
2023-05-22T09:16:09.917Z,7.55
2023-05-22T09:18:37.988Z,8.60
2023-05-22T09:21:21.725Z,8.60
2023-05-22T09:23:59.160Z,7.13
2023-05-22T09:26:29.322Z,7.13
2023-05-22T09:28:57.237Z,7.15
2023-05-22T09:31:24.050Z,8.07
2023-05-22T09:33:50.959Z,6.85
2023-05-22T09:36:17.898Z,7.07
2023-05-22T09:38:44.968Z,6.65
2023-05-22T09:41:11.745Z,6.85
2023-05-22T09:43:38.555Z,7.20
2023-05-22T09:46:05.389Z,7.45
2023-05-22T09:48:38.320Z,7.20
2023-05-22T09:51:06.301Z,7.10
2023-05-22T09:53:33.372Z,6.78
2023-05-22T09:56:01.959Z,7.95
2023-05-22T09:58:32.218Z,6.65
2023-05-22T10:01:00.806Z,7.80
2023-05-22T10:03:27.829Z,8.00
2023-05-22T10:05:58.925Z,7.18
2023-05-22T10:08:28.989Z,6.90
2023-05-22T10:10:56.092Z,7.00
2023-05-22T10:13:25.343Z,8.02
2023-05-22T10:15:53.276Z,8.13
2023-05-22T10:18:20.380Z,7.72
2023-05-22T10:20:47.824Z,8.35
2023-05-22T10:23:18.013Z,8.35
2023-05-22T10:25:45.841Z,7.90
2023-05-22T10:28:21.347Z,7.70
2023-05-22T10:30:53.372Z,6.60
2023-05-22T10:33:25.036Z,7.38
2023-05-22T10:35:58.952Z,7.30
2023-05-22T10:38:28.646Z,7.80
2023-05-22T10:40:56.182Z,7.63
2023-05-22T10:43:23.440Z,7.95
2023-05-22T10:46:01.031Z,7.32
2023-05-22T10:48:27.857Z,7.63
2023-05-22T10:50:54.643Z,7.72
2023-05-22T10:53:25.366Z,7.05
2023-05-22T10:55:56.851Z,6.95
2023-05-22T10:58:28.776Z,6.75
2023-05-22T11:01:19.413Z,7.53
2023-05-22T11:04:13.346Z,7.63
2023-05-22T11:06:45.702Z,7.40
2023-05-22T11:09:30.817Z,7.27
2023-05-22T11:12:24.691Z,7.00
2023-05-22T11:15:05.814Z,7.03
2023-05-22T11:17:42.910Z,6.43
2023-05-22T11:20:24.329Z,7.45
2023-05-22T11:23:05.389Z,7.57
2023-05-22T11:25:34.356Z,6.73
2023-05-22T11:28:03.682Z,7.60
2023-05-22T11:30:30.864Z,7.25
2023-05-22T11:32:59.084Z,7.45
2023-05-22T11:35:26.154Z,7.68
2023-05-22T11:37:53.862Z,7.50
2023-05-22T11:40:24.403Z,6.97
2023-05-22T11:42:52.541Z,7.72
2023-05-22T11:45:19.423Z,7.75
2023-05-22T11:47:46.493Z,8.43
2023-05-22T11:50:15.053Z,7.20
2023-05-22T11:52:45.901Z,7.28
2023-05-22T11:55:12.653Z,7.72
2023-05-22T11:57:39.563Z,7.60
2023-05-22T12:00:08.345Z,7.80
2023-05-22T12:02:36.058Z,7.45
2023-05-22T12:05:04.212Z,7.30
2023-05-22T12:07:31.596Z,7.82
2023-05-22T12:09:58.909Z,8.65
2023-05-22T12:12:26.080Z,8.50
2023-05-22T12:14:53.287Z,7.93
2023-05-22T12:17:20.247Z,7.90
2023-05-22T12:19:47.545Z,7.32
2023-05-22T12:22:14.536Z,7.38
2023-05-22T12:24:42.820Z,7.05
2023-05-22T12:27:10.459Z,7.93
2023-05-22T12:29:41.532Z,7.32
2023-05-22T12:32:11.028Z,7.10
2023-05-22T12:34:48.009Z,7.18
2023-05-22T12:37:21.773Z,7.93
2023-05-22T12:40:03.414Z,6.82
2023-05-22T12:42:30.194Z,6.90
2023-05-22T12:44:58.243Z,6.85
2023-05-22T12:47:25.610Z,6.78
2023-05-22T12:49:52.788Z,7.10
2023-05-22T12:52:26.048Z,6.60
2023-05-22T12:54:52.706Z,6.85
2023-05-22T12:57:19.488Z,6.88
2023-05-22T12:59:46.204Z,7.32
2023-05-22T13:02:12.925Z,6.90
2023-05-22T13:04:39.962Z,6.57
2023-05-22T13:07:06.796Z,7.55
2023-05-22T13:09:33.501Z,6.63
2023-05-22T13:12:00.441Z,7.13
2023-05-22T13:14:27.234Z,6.70
2023-05-22T13:16:53.886Z,6.80
2023-05-22T13:19:20.686Z,7.35
2023-05-22T13:21:47.528Z,6.85
2023-05-22T13:24:14.250Z,7.05
2023-05-22T13:26:41.035Z,7.05
2023-05-22T13:29:07.688Z,6.95
2023-05-22T13:31:37.458Z,7.03
2023-05-22T13:34:04.974Z,7.22
2023-05-22T13:36:32.144Z,7.50
2023-05-22T13:38:59.011Z,7.53
2023-05-22T13:41:25.835Z,6.85
2023-05-22T13:43:52.692Z,7.22
2023-05-22T13:46:21.833Z,6.75
2023-05-22T13:48:48.758Z,7.07
2023-05-22T13:51:15.622Z,7.50
2023-05-22T13:53:42.374Z,6.38
2023-05-22T13:56:09.263Z,6.40
2023-05-22T13:58:35.983Z,5.60
2023-05-22T14:01:02.704Z,6.00
2023-05-22T14:03:29.502Z,5.80
2023-05-22T14:05:56.257Z,5.95
2023-05-22T14:08:24.126Z,5.78
2023-05-22T14:10:50.908Z,5.93
2023-05-22T14:13:17.716Z,6.53
2023-05-22T14:15:46.833Z,6.20
2023-05-22T14:18:14.493Z,6.40
2023-05-22T14:20:41.423Z,6.32
2023-05-22T14:23:08.370Z,6.10
2023-05-22T14:25:35.137Z,5.45
2023-05-22T14:28:01.851Z,6.07
2023-05-22T14:30:28.557Z,4.65
2023-05-22T14:32:55.339Z,5.15
2023-05-22T14:35:22.329Z,5.22
2023-05-22T14:37:49.092Z,5.32
2023-05-22T14:40:16.125Z,4.15
2023-05-22T14:42:42.909Z,5.20
2023-05-22T14:45:09.948Z,5.00
2023-05-22T14:47:36.839Z,5.28
2023-05-22T14:50:18.375Z,4.45
2023-05-22T14:52:46.786Z,5.57
2023-05-22T14:55:13.493Z,4.97
2023-05-22T14:57:40.381Z,5.25
2023-05-22T15:00:09.101Z,5.00
2023-05-22T15:02:36.616Z,5.65
2023-05-22T15:05:03.524Z,5.35
2023-05-22T15:07:42.953Z,5.47
2023-05-22T15:10:11.301Z,4.93
2023-05-22T15:12:38.073Z,5.40
2023-05-22T15:15:05.222Z,4.88
2023-05-22T15:17:31.997Z,5.70
2023-05-22T15:19:58.817Z,5.78
2023-05-22T15:22:25.693Z,5.28
2023-05-22T15:25:11.508Z,5.10
2023-05-22T15:27:39.224Z,5.55
2023-05-22T15:30:06.851Z,5.82
2023-05-22T15:32:33.728Z,5.28
2023-05-22T15:35:00.836Z,4.80
2023-05-22T15:37:29.617Z,5.80
2023-05-22T15:39:57.717Z,5.25
2023-05-22T15:42:24.582Z,5.50
2023-05-22T15:44:51.277Z,5.40
2023-05-22T15:47:17.944Z,5.60
2023-05-22T15:49:44.604Z,5.55
2023-05-22T15:52:11.324Z,5.38
2023-05-22T15:54:38.093Z,5.35
2023-05-22T15:57:05.129Z,6.05
2023-05-22T15:59:31.836Z,5.95
2023-05-22T16:01:58.751Z,5.97
2023-05-22T16:04:25.627Z,6.00
2023-05-22T16:06:52.318Z,5.90
2023-05-22T16:09:19.517Z,5.43
2023-05-22T16:11:46.510Z,5.97
2023-05-22T16:14:13.337Z,8.95
2023-05-22T16:16:40.790Z,10.32
2023-05-22T16:19:07.728Z,8.43
2023-05-22T16:21:34.629Z,7.55
2023-05-22T16:24:01.310Z,7.93
2023-05-22T16:26:28.078Z,9.52
2023-05-22T16:28:54.800Z,9.23
2023-05-22T16:31:21.589Z,7.90
2023-05-22T16:33:48.387Z,8.93
2023-05-22T16:36:15.089Z,8.95
2023-05-22T16:38:42.211Z,9.02
2023-05-22T16:41:08.995Z,9.10
2023-05-22T16:43:37.736Z,9.07
2023-05-22T16:46:04.525Z,8.68
2023-05-22T16:48:31.240Z,8.40
2023-05-22T16:50:57.920Z,6.60
2023-05-22T16:53:24.696Z,8.40
2023-05-22T16:55:51.903Z,7.05
2023-05-22T16:58:19.012Z,7.93
2023-05-22T17:00:46.013Z,8.00
2023-05-22T17:03:14.072Z,8.82
2023-05-22T17:05:41.438Z,8.85
2023-05-22T17:08:08.401Z,9.15
2023-05-22T17:10:35.372Z,9.55
2023-05-22T17:13:02.193Z,9.98
2023-05-22T17:15:28.987Z,7.93
2023-05-22T17:17:55.835Z,6.32
2023-05-22T17:20:23.093Z,5.88
2023-05-22T17:22:50.150Z,5.57
2023-05-22T17:25:16.961Z,5.32
2023-05-22T17:27:44.008Z,5.15
2023-05-22T17:30:11.408Z,5.47
2023-05-22T17:32:38.206Z,6.57
2023-05-22T17:35:06.621Z,6.35
2023-05-22T17:37:33.947Z,6.65
2023-05-22T17:40:00.906Z,6.57
2023-05-22T17:42:27.721Z,6.32
2023-05-22T17:44:54.537Z,6.78
2023-05-22T17:47:21.447Z,6.88
2023-05-22T17:49:48.253Z,7.95
2023-05-22T17:52:15.039Z,7.05
2023-05-22T17:54:41.809Z,6.50
2023-05-22T17:57:08.534Z,7.03
2023-05-22T17:59:35.760Z,7.28
2023-05-22T18:02:03.512Z,8.40
2023-05-22T18:04:30.363Z,8.60
2023-05-22T18:06:57.053Z,9.40
2023-05-22T18:09:23.748Z,9.98
2023-05-22T18:11:52.874Z,8.98
2023-05-22T18:14:19.940Z,8.88
2023-05-22T18:16:46.750Z,9.38
2023-05-22T18:19:13.679Z,10.23
2023-05-22T18:21:40.505Z,11.55
2023-05-22T18:24:07.340Z,11.07
2023-05-22T18:26:34.041Z,11.20
2023-05-22T18:29:01.171Z,10.38
2023-05-22T18:31:27.965Z,11.13
2023-05-22T18:33:54.845Z,10.48
2023-05-22T18:36:21.649Z,12.07
2023-05-22T18:38:48.452Z,11.13
2023-05-22T18:41:15.138Z,11.32
2023-05-22T18:43:43.243Z,10.95
2023-05-22T18:46:10.077Z,9.90
2023-05-22T18:48:36.792Z,9.70
2023-05-22T18:51:03.636Z,10.95
2023-05-22T18:53:31.472Z,10.55
2023-05-22T18:55:58.291Z,10.43
2023-05-22T18:58:25.050Z,10.13
2023-05-22T19:00:54.271Z,10.57
2023-05-22T19:03:21.216Z,10.80
2023-05-22T19:05:47.994Z,10.85
2023-05-22T19:08:14.777Z,11.25
2023-05-22T19:10:42.019Z,10.88
2023-05-22T19:13:09.000Z,10.75
2023-05-22T19:15:35.852Z,11.73
2023-05-22T19:18:02.653Z,11.95
2023-05-22T19:20:29.566Z,11.98
2023-05-22T19:22:56.548Z,11.25
2023-05-22T19:25:23.355Z,11.13
2023-05-22T19:27:50.229Z,12.00
2023-05-22T19:30:18.815Z,11.93
2023-05-22T19:32:48.150Z,12.05
2023-05-22T19:35:15.161Z,12.05
2023-05-22T19:37:41.961Z,12.10
2023-05-22T19:40:12.183Z,11.93
2023-05-22T19:42:39.929Z,11.65
2023-05-22T19:45:07.296Z,11.88
2023-05-22T19:47:34.131Z,12.10
2023-05-22T19:50:01.046Z,12.93
2023-05-22T19:52:27.770Z,12.20
2023-05-22T19:54:54.729Z,13.02
2023-05-22T19:57:21.644Z,12.48
2023-05-22T19:59:50.351Z,12.63
2023-05-22T20:02:17.322Z,11.52
2023-05-22T20:04:44.065Z,10.38
2023-05-22T20:07:10.892Z,12.18
2023-05-22T20:09:37.574Z,10.57
2023-05-22T20:12:04.428Z,10.48
2023-05-22T20:14:31.180Z,10.55
2023-05-22T20:16:59.288Z,10.15
2023-05-22T20:19:27.537Z,10.88
2023-05-22T20:21:54.685Z,10.13
2023-05-22T20:24:21.900Z,10.43
2023-05-22T20:26:48.620Z,11.15
2023-05-22T20:29:15.441Z,10.48
2023-05-22T20:31:42.433Z,9.57
2023-05-22T20:34:09.627Z,9.38
2023-05-22T20:36:36.634Z,8.93
2023-05-22T20:39:03.592Z,8.45
2023-05-22T20:41:30.361Z,8.15
2023-05-22T20:43:58.582Z,8.10
2023-05-22T20:46:26.426Z,8.32
2023-05-22T20:48:53.715Z,7.47
2023-05-22T20:51:20.710Z,7.93
2023-05-22T20:53:48.141Z,9.18
2023-05-22T20:56:15.020Z,7.80
2023-05-22T20:58:42.441Z,7.80
2023-05-22T21:01:09.279Z,8.07
2023-05-22T21:03:36.495Z,7.50
2023-05-22T21:06:03.425Z,7.78
2023-05-22T21:08:30.239Z,8.10
2023-05-22T21:10:57.010Z,8.63
2023-05-22T21:13:23.801Z,8.00
2023-05-22T21:15:50.625Z,8.32
2023-05-22T21:18:19.140Z,7.82
2023-05-22T21:20:46.719Z,8.73
2023-05-22T21:23:13.489Z,7.90
2023-05-22T21:25:40.231Z,8.32
2023-05-22T21:28:07.831Z,7.50
2023-05-22T21:30:34.686Z,8.85
2023-05-22T21:33:01.656Z,8.40
2023-05-22T21:35:28.922Z,7.97
2023-05-22T21:37:55.686Z,7.90
2023-05-22T21:40:22.589Z,8.18
2023-05-22T21:42:49.261Z,8.13
2023-05-22T21:45:16.233Z,8.27
2023-05-22T21:47:43.100Z,7.85
2023-05-22T21:50:10.402Z,8.00
2023-05-22T21:52:37.171Z,8.40
2023-05-22T21:55:04.154Z,8.27
2023-05-22T21:57:30.943Z,8.07
2023-05-22T21:59:57.645Z,9.10
2023-05-22T22:02:24.668Z,9.25
2023-05-22T22:04:51.600Z,9.70
2023-05-22T22:07:18.300Z,10.02
2023-05-22T22:09:45.169Z,9.90
2023-05-22T22:12:12.065Z,10.50
2023-05-22T22:14:38.761Z,10.70
2023-05-22T22:17:06.025Z,10.57
2023-05-22T22:19:34.308Z,9.70
2023-05-22T22:22:01.924Z,10.13
2023-05-22T22:24:29.633Z,10.27
2023-05-22T22:26:56.750Z,11.45
2023-05-22T22:29:23.546Z,11.85
2023-05-22T22:31:50.454Z,12.38
2023-05-22T22:34:17.307Z,12.43
2023-05-22T22:36:44.386Z,13.40
2023-05-22T22:39:11.197Z,14.88
2023-05-22T22:41:38.013Z,16.40
2023-05-22T22:44:04.745Z,17.13
2023-05-22T22:46:32.199Z,16.45
2023-05-22T22:49:01.943Z,16.20
2023-05-22T22:51:30.795Z,16.95
2023-05-22T22:53:58.372Z,17.70
2023-05-22T22:56:29.157Z,16.23
2023-05-22T22:58:57.198Z,18.95
2023-05-22T23:01:24.286Z,18.83
2023-05-22T23:03:51.554Z,17.08
2023-05-22T23:06:19.386Z,19.02
2023-05-22T23:08:46.157Z,19.38
2023-05-22T23:11:12.882Z,19.77
2023-05-22T23:13:41.290Z,19.42
2023-05-22T23:16:08.447Z,19.77
2023-05-22T23:18:35.376Z,19.60
2023-05-22T23:21:02.168Z,20.58
2023-05-22T23:23:28.954Z,19.58
2023-05-22T23:25:58.017Z,20.90
2023-05-22T23:28:25.811Z,22.35
2023-05-22T23:30:52.942Z,21.70
2023-05-22T23:33:19.714Z,23.10
2023-05-22T23:35:46.449Z,23.90
2023-05-22T23:38:13.209Z,24.67
2023-05-22T23:40:39.896Z,26.08
2023-05-22T23:43:06.626Z,27.13
2023-05-22T23:45:33.385Z,30.05
2023-05-22T23:48:00.282Z,32.70
2023-05-22T23:50:27.054Z,33.63
2023-05-22T23:52:54.151Z,34.67
2023-05-22T23:55:20.989Z,35.75
2023-05-22T23:57:47.720Z,38.72
